Time;durP1;ratioP1;P1;durP2;ratioP2;P2;SDS_P1;SDS_P2;PMS_P1;PMS_P2;Temp;Humidity;BMP_temperature;BMP_pressure;BME280_temperature;BME280_humidity;BME280_pressure;Samples;Min_cycle;Max_cycle;Signal;HPM_P1;HPM_P2
2021/04/29 00:03:11;;;;;;;12.03;5.87;;;;;;;10.57;37.47;99780.34;5082176;57;1138919;-74
2021/04/29 00:08:16;;;;;;;14.50;6.47;;;;;;;10.51;37.58;99768.17;5082087;57;1138749;-72
2021/04/29 00:13:22;;;;;;;10.53;5.90;;;;;;;10.45;37.67;99771.35;5082414;57;1138582;-71
2021/04/29 00:18:28;;;;;;;13.32;6.30;;;;;;;10.40;37.91;99762.98;5082473;57;1138636;-74
2021/04/29 00:23:34;;;;;;;14.57;5.90;;;;;;;10.34;38.03;99749.84;5082452;57;1138575;-69
2021/04/29 00:28:40;;;;;;;10.90;5.93;;;;;;;10.28;38.06;99754.34;5082374;57;1138702;-72
2021/04/29 00:33:46;;;;;;;11.73;5.90;;;;;;;10.26;38.36;99755.45;5082498;57;1138595;-70
2021/04/29 00:38:51;;;;;;;15.97;6.40;;;;;;;10.21;38.47;99754.55;5082401;57;1138567;-74
2021/04/29 00:43:58;;;;;;;11.23;6.70;;;;;;;10.14;38.67;99742.32;5082481;57;1138709;-71
2021/04/29 00:49:04;;;;;;;16.97;6.83;;;;;;;10.08;38.78;99742.05;5082049;57;1177422;-69
2021/04/29 00:54:10;;;;;;;16.23;6.30;;;;;;;10.03;38.99;99737.64;5082800;57;1138680;-70
2021/04/29 00:59:16;;;;;;;12.78;7.17;;;;;;;10.01;39.18;99735.13;5082870;57;1138691;-70
2021/04/29 01:04:37;;;;;;;9.60;6.05;;;;;;;9.96;39.29;99731.20;5082717;57;1138509;-70
2021/04/29 01:09:59;;;;;;;15.97;7.30;;;;;;;9.95;39.49;99738.30;5082799;57;1134392;-72
2021/04/29 01:15:08;;;;;;;10.43;6.45;;;;;;;9.90;39.62;99729.95;5085192;57;1136581;-74
2021/04/29 01:20:49;;;;;;;11.03;5.55;;;;;;;9.86;39.65;99731.19;5084247;57;1136672;-72
2021/04/29 01:25:59;;;;;;;15.60;7.00;;;;;;;9.83;39.56;99731.45;5082512;57;1136409;-71
2021/04/29 01:31:06;;;;;;;15.75;7.92;;;;;;;9.78;39.70;99733.16;5097382;57;1136878;-74
2021/04/29 01:36:13;;;;;;;12.98;7.05;;;;;;;9.74;39.81;99726.97;5083071;56;1136663;-69
2021/04/29 01:41:19;;;;;;;9.33;6.78;;;;;;;9.71;40.01;99729.88;5082890;57;1136532;-71
2021/04/29 01:46:26;;;;;;;11.95;7.28;;;;;;;9.67;40.19;99725.34;5082849;57;1134498;-74
2021/04/29 01:51:33;;;;;;;12.53;7.60;;;;;;;9.62;40.41;99719.64;5082589;57;1136804;-73
2021/04/29 01:56:41;;;;;;;20.70;7.57;;;;;;;9.57;40.44;99722.31;5082450;57;1136488;-73
2021/04/29 02:01:47;;;;;;;17.57;7.23;;;;;;;9.50;40.54;99728.10;5082396;57;1136674;-73
2021/04/29 02:06:53;;;;;;;15.87;8.07;;;;;;;9.42;40.78;99726.63;5082477;57;1134355;-75
2021/04/29 02:12:01;;;;;;;19.13;7.47;;;;;;;9.32;41.02;99724.39;5082374;57;1134578;-76
2021/04/29 02:17:35;;;;;;;19.07;8.43;;;;;;;9.26;41.15;99720.97;5082609;57;1134646;-73
2021/04/29 02:22:43;;;;;;;;;;;;;;;9.22;41.31;99708.16;5086148;57;1134537;-71
2021/04/29 02:27:48;;;;;;;20.23;9.10;;;;;;;9.17;41.51;99708.55;5096491;57;969735;-72
2021/04/29 02:32:54;;;;;;;18.17;8.37;;;;;;;9.08;41.58;99704.89;5082718;56;1132281;-73
2021/04/29 02:38:00;;;;;;;20.23;8.37;;;;;;;9.02;41.76;99701.92;5082516;57;1134306;-72
2021/04/29 02:43:06;;;;;;;20.50;8.80;;;;;;;8.99;41.83;99699.56;5081885;57;1169650;-74
2021/04/29 02:48:15;;;;;;;18.73;8.43;;;;;;;8.95;41.94;99700.30;5082733;57;1134395;-75
2021/04/29 02:53:21;;;;;;;16.35;8.73;;;;;;;8.87;42.36;99693.98;5082613;57;1134637;-76
2021/04/29 02:58:27;;;;;;;19.33;8.97;;;;;;;8.87;42.36;99693.98;5082642;57;1134460;-75
2021/04/29 03:03:33;;;;;;;15.60;8.23;;;;;;;8.83;42.26;99694.73;5082629;57;1134581;-72
2021/04/29 03:08:38;;;;;;;15.70;8.47;;;;;;;8.79;42.30;99689.36;5082626;57;1134301;-74
2021/04/29 03:13:44;;;;;;;15.03;8.27;;;;;;;8.77;42.38;99690.80;5082684;57;1134560;-72
2021/04/29 03:18:49;;;;;;;15.90;8.83;;;;;;;8.71;42.56;99688.66;5082152;57;1134793;-72
2021/04/29 03:23:55;;;;;;;17.90;8.77;;;;;;;8.71;42.58;99685.19;5082358;57;1134428;-74
2021/04/29 03:29:00;;;;;;;22.57;9.30;;;;;;;8.68;42.69;99690.74;5082339;57;1134321;-72
2021/04/29 03:34:06;;;;;;;20.83;8.63;;;;;;;8.64;42.81;99678.77;5082209;57;1134364;-71
2021/04/29 03:39:12;;;;;;;18.27;9.43;;;;;;;8.58;43.25;99677.47;5082343;57;1139376;-74
2021/04/29 03:44:17;;;;;;;17.32;8.18;;;;;;;8.58;43.25;99677.47;5082147;57;1134608;-74
2021/04/29 03:49:23;;;;;;;18.15;8.05;;;;;;;8.57;43.15;99686.81;5082660;57;1134471;-73
2021/04/29 03:54:29;;;;;;;17.87;8.53;;;;;;;8.50;43.28;99685.19;5083007;57;1134438;-74
2021/04/29 03:59:35;;;;;;;24.73;9.13;;;;;;;8.49;43.49;99683.98;5082710;57;1134318;-72
2021/04/29 04:04:40;;;;;;;18.83;8.50;;;;;;;8.46;43.53;99685.08;5073528;56;1134597;-69
2021/04/29 04:09:46;;;;;;;20.33;9.57;;;;;;;8.46;43.68;99686.39;5000375;57;1134525;-74
2021/04/29 04:14:52;;;;;;;28.67;15.10;;;;;;;8.45;43.78;99687.34;5000321;57;1134577;-71
2021/04/29 04:19:57;;;;;;;22.63;9.97;;;;;;;8.46;43.85;99687.70;5062253;56;1136764;-72
2021/04/29 04:25:03;;;;;;;18.23;8.57;;;;;;;8.47;43.88;99681.48;5083944;56;1134570;-70
2021/04/29 04:30:11;;;;;;;19.50;9.33;;;;;;;8.49;43.95;99678.72;5084092;56;1134622;-74
2021/04/29 04:35:17;;;;;;;25.80;10.98;;;;;;;8.50;43.96;99677.76;5084045;56;1134661;-74
2021/04/29 04:40:22;;;;;;;17.70;9.63;;;;;;;8.50;44.12;99668.53;5083811;56;1136711;-70
2021/04/29 04:45:28;;;;;;;31.33;10.50;;;;;;;8.51;44.34;99671.53;5083832;56;1134664;-77
2021/04/29 04:50:34;;;;;;;19.90;10.33;;;;;;;8.50;44.65;99673.33;5083311;56;1136609;-74
2021/04/29 04:55:47;;;;;;;20.23;10.87;;;;;;;8.49;44.64;99672.13;5083359;56;1136458;-73
2021/04/29 05:00:50;;;;;;;22.30;10.33;;;;;;;8.50;44.94;99669.38;5081639;57;1136618;-76
2021/04/29 05:05:56;;;;;;;23.93;11.10;;;;;;;8.49;45.01;99662.43;5083280;57;1136657;-78
2021/04/29 05:11:02;;;;;;;25.07;11.17;;;;;;;8.50;45.22;99653.56;5081855;57;1136463;-69
2021/04/29 05:16:08;;;;;;;31.10;13.77;;;;;;;8.51;45.30;99651.77;5077400;57;1136416;-70
2021/04/29 05:21:14;;;;;;;29.37;10.57;;;;;;;8.53;45.40;99640.14;5079684;56;1136676;-73
2021/04/29 05:26:19;;;;;;;24.82;11.08;;;;;;;8.57;45.34;99624.88;4989088;58;1136626;-73
2021/04/29 05:31:25;;;;;;;26.15;11.57;;;;;;;8.58;45.41;99610.27;4960313;58;1136777;-72
2021/04/29 05:36:31;;;;;;;31.40;11.33;;;;;;;8.62;45.66;99605.58;5009173;58;1136644;-71
2021/04/29 05:41:36;;;;;;;19.37;10.73;;;;;;;8.67;46.31;99593.69;5009388;58;1136444;-74
2021/04/29 05:46:43;;;;;;;28.40;10.67;;;;;;;8.67;46.31;99593.69;5008490;57;1136876;-77
2021/04/29 05:51:49;;;;;;;17.27;9.07;;;;;;;8.78;46.31;99612.55;5003623;57;1136732;-76
2021/04/29 05:56:56;;;;;;;25.90;11.40;;;;;;;8.84;46.66;99611.20;4924127;57;1134351;-75
2021/04/29 06:02:02;;;;;;;39.93;12.20;;;;;;;8.89;46.78;99613.78;4998650;58;1136502;-74
2021/04/29 06:07:07;;;;;;;32.90;12.90;;;;;;;8.96;46.77;99603.08;4989691;58;1136526;-77
2021/04/29 06:12:13;;;;;;;23.67;13.03;;;;;;;9.01;46.84;99601.38;5074755;57;1145132;-74
2021/04/29 06:17:19;;;;;;;24.30;11.75;;;;;;;9.06;47.08;99596.52;5067370;57;1136492;-74
2021/04/29 06:22:26;;;;;;;21.62;11.75;;;;;;;9.13;47.12;99605.11;5079463;56;1136632;-75
2021/04/29 06:27:32;;;;;;;20.07;11.00;;;;;;;9.21;47.19;99599.16;5095106;57;1136534;-74
2021/04/29 06:32:37;;;;;;;23.03;11.30;;;;;;;9.30;47.24;99602.34;5094234;57;1136440;-75
2021/04/29 06:37:43;;;;;;;32.73;10.33;;;;;;;9.37;47.18;99592.89;5093765;57;1136542;-75
2021/04/29 06:42:49;;;;;;;21.87;10.10;;;;;;;9.47;47.42;99592.44;5062737;57;1136806;-70
2021/04/29 06:47:54;;;;;;;25.90;10.67;;;;;;;9.58;47.57;99593.31;5006977;58;1137156;-73
2021/04/29 06:53:00;;;;;;;25.20;11.90;;;;;;;9.67;47.82;99588.53;5006900;58;1138784;-71
2021/04/29 06:58:07;;;;;;;18.03;10.20;;;;;;;9.73;47.94;99580.91;5007578;58;1138775;-73
2021/04/29 07:03:12;;;;;;;26.80;11.30;;;;;;;9.83;48.96;99561.11;5007312;58;1139035;-71
2021/04/29 07:08:18;;;;;;;28.83;15.53;;;;;;;9.95;49.11;99565.28;5007002;57;1138716;-74
2021/04/29 07:13:24;;;;;;;30.17;12.95;;;;;;;10.08;49.15;99553.14;5006971;58;1138557;-70
2021/04/29 07:18:29;;;;;;;26.37;11.40;;;;;;;10.22;49.52;99544.83;5006945;58;1141269;-73
2021/04/29 07:23:35;;;;;;;21.47;11.87;;;;;;;10.36;49.75;99540.91;5013144;57;1140849;-74
2021/04/29 07:28:45;;;;;;;23.63;11.63;;;;;;;10.49;49.69;99536.98;5007838;57;1140941;-70
2021/04/29 07:33:50;;;;;;;25.30;12.73;;;;;;;10.61;49.80;99527.08;5005849;58;1140839;-72
2021/04/29 07:38:57;;;;;;;33.60;15.00;;;;;;;10.70;50.00;99539.42;5037694;57;1140806;-73
2021/04/29 07:44:05;;;;;;;24.47;12.53;;;;;;;10.75;50.08;99536.36;5024493;57;1140881;-70
2021/04/29 07:49:11;;;;;;;27.40;13.00;;;;;;;10.87;50.36;99543.96;5057392;57;1141019;-71
2021/04/29 07:54:16;;;;;;;27.52;13.38;;;;;;;10.95;50.62;99540.61;5060226;57;1141163;-73
2021/04/29 07:59:22;;;;;;;29.30;14.47;;;;;;;11.04;50.96;99547.66;5036476;57;1140927;-73
2021/04/29 08:04:33;;;;;;;26.73;15.25;;;;;;;11.14;51.18;99556.41;5057502;57;1140679;-72
2021/04/29 08:09:35;;;;;;;24.07;12.17;;;;;;;11.25;51.39;99559.35;5049031;57;1140873;-72
2021/04/29 08:14:42;;;;;;;27.43;12.47;;;;;;;11.34;51.72;99562.92;5060242;57;1140897;-72
2021/04/29 08:19:48;;;;;;;26.10;13.47;;;;;;;11.42;51.62;99557.25;5059623;57;1140578;-72
2021/04/29 08:25:00;;;;;;;28.37;13.77;;;;;;;11.53;51.73;99554.39;5058705;56;1140813;-73
2021/04/29 08:30:03;;;;;;;25.07;13.47;;;;;;;11.64;51.87;99552.01;5052274;57;1140862;-74
2021/04/29 08:35:09;;;;;;;21.77;13.00;;;;;;;11.76;51.95;99554.01;5054520;57;1140602;-73
2021/04/29 08:40:15;;;;;;;26.87;14.20;;;;;;;11.87;51.99;99551.97;5052864;57;1140898;-74
2021/04/29 08:45:22;;;;;;;35.25;11.53;;;;;;;11.96;51.90;99549.72;5054841;57;1140672;-73
2021/04/29 08:50:31;;;;;;;26.40;13.30;;;;;;;12.06;52.37;99550.16;4969748;58;1140712;-74
2021/04/29 08:55:37;;;;;;;23.85;12.53;;;;;;;12.12;51.93;99549.03;5098677;57;1140632;-73
2021/04/29 09:00:43;;;;;;;24.57;11.87;;;;;;;12.17;51.92;99548.09;5124831;57;1140578;-73
2021/04/29 09:05:52;;;;;;;35.87;13.50;;;;;;;12.22;52.00;99545.80;5069931;56;1140911;-73
2021/04/29 09:11:11;;;;;;;23.30;12.27;;;;;;;12.26;51.84;99547.17;5064799;56;1141279;-73
2021/04/29 09:16:16;;;;;;;39.17;13.27;;;;;;;12.29;52.11;99556.14;5064111;56;1141002;-72
2021/04/29 09:21:22;;;;;;;31.75;14.35;;;;;;;12.35;52.52;99570.62;5061306;56;1141269;-72
2021/04/29 09:26:32;;;;;;;26.53;14.77;;;;;;;12.38;52.21;99574.75;5064769;56;1141074;-73
2021/04/29 09:31:42;;;;;;;31.03;15.53;;;;;;;12.40;52.50;99572.78;5032613;56;1140970;-74
2021/04/29 09:36:48;;;;;;;24.17;15.57;;;;;;;12.42;53.03;99565.02;5029350;56;1140860;-74
2021/04/29 09:41:54;;;;;;;26.10;13.53;;;;;;;12.45;53.85;99556.77;4979178;57;1140849;-69
2021/04/29 09:47:03;;;;;;;27.60;12.50;;;;;;;12.47;54.26;99546.00;5035155;56;1141014;-74
2021/04/29 09:52:24;;;;;;;25.90;15.50;;;;;;;12.49;54.69;99538.73;5034064;56;1140785;-74
2021/04/29 09:57:30;;;;;;;27.50;14.73;;;;;;;12.48;55.04;99528.62;5030996;56;1140870;-74
2021/04/29 10:02:35;;;;;;;28.63;16.00;;;;;;;12.49;54.88;99528.95;5034956;56;1141012;-73
2021/04/29 10:07:41;;;;;;;26.53;14.47;;;;;;;12.50;55.56;99530.63;5033344;57;1141099;-73
2021/04/29 10:12:48;;;;;;;34.60;20.13;;;;;;;12.52;55.76;99526.00;5067947;56;1140725;-73
2021/04/29 10:17:54;;;;;;;176.10;100.90;;;;;;;12.54;57.13;99517.86;5070885;56;1140595;-73
2021/04/29 10:23:01;;;;;;;65.53;36.60;;;;;;;12.59;58.84;99490.38;5070895;56;1144945;-72
2021/04/29 10:28:07;;;;;;;32.80;19.77;;;;;;;12.66;59.84;99503.38;5037688;56;1140480;-73
2021/04/29 10:33:18;;;;;;;37.23;23.80;;;;;;;12.73;59.39;99503.06;5081819;57;1141084;-73
2021/04/29 10:38:33;;;;;;;26.20;15.55;;;;;;;12.79;59.31;99495.81;5085967;57;1140768;-72
2021/04/29 10:43:39;;;;;;;24.00;15.50;;;;;;;12.85;57.77;99503.61;5082363;56;1140770;-73
2021/04/29 10:48:53;;;;;;;27.40;16.70;;;;;;;12.92;57.88;99513.95;5082295;56;1140623;-72
2021/04/29 10:54:10;;;;;;;27.23;17.70;;;;;;;12.97;57.56;99495.73;5081427;57;1140880;-73
2021/04/29 10:59:16;;;;;;;27.97;16.33;;;;;;;13.00;57.65;99488.27;4974040;58;1150312;-74
2021/04/29 11:04:24;;;;;;;26.93;16.23;;;;;;;13.08;57.72;99487.48;4974196;58;1141003;-72
2021/04/29 11:09:30;;;;;;;23.22;15.08;;;;;;;13.14;58.59;99475.40;4974323;58;1140855;-73
2021/04/29 11:14:41;;;;;;;29.70;15.67;;;;;;;13.20;58.39;99464.98;4951010;58;1141090;-72
2021/04/29 11:19:56;;;;;;;27.15;16.73;;;;;;;13.25;58.33;99468.48;4904665;58;1140640;-74
2021/04/29 11:25:03;;;;;;;34.80;16.53;;;;;;;13.34;58.88;99464.85;4895387;58;1141170;-71
2021/04/29 11:30:14;;;;;;;29.03;16.90;;;;;;;13.46;59.46;99459.55;4895455;58;1140723;-73
2021/04/29 11:35:33;;;;;;;27.60;15.93;;;;;;;13.61;60.67;99453.94;4876146;58;1150656;-75
2021/04/29 11:40:39;;;;;;;21.17;15.20;;;;;;;13.72;60.88;99455.47;5011822;57;1140521;-73
2021/04/29 11:45:45;;;;;;;28.33;16.10;;;;;;;13.79;61.38;99460.44;5067313;57;1140823;-77
2021/04/29 11:50:58;;;;;;;56.73;30.93;;;;;;;13.86;60.27;99452.14;4995878;58;1140623;-72
2021/04/29 11:56:09;;;;;;;94.93;56.90;;;;;;;13.96;60.92;99452.80;4996368;58;1140874;-73
2021/04/29 12:01:16;;;;;;;33.33;20.33;;;;;;;14.03;61.38;99437.02;5041649;57;1140915;-73
2021/04/29 12:06:22;;;;;;;30.10;17.90;;;;;;;14.07;61.50;99437.00;5055094;57;1140832;-73
2021/04/29 12:11:28;;;;;;;33.78;20.57;;;;;;;14.11;61.31;99436.17;4987422;58;1140940;-73
2021/04/29 12:16:34;;;;;;;26.60;15.93;;;;;;;14.09;60.93;99434.51;4988936;58;1141134;-73
2021/04/29 12:21:40;;;;;;;34.83;17.00;;;;;;;14.11;61.04;99425.53;4988115;57;1140796;-73
2021/04/29 12:26:46;;;;;;;26.77;12.83;;;;;;;14.17;60.79;99426.20;5003734;58;1140747;-74
2021/04/29 12:31:58;;;;;;;23.97;14.67;;;;;;;14.25;60.45;99436.81;4987878;57;1140644;-73
2021/04/29 12:37:08;;;;;;;23.87;15.40;;;;;;;14.32;60.00;99439.14;5045281;57;1140867;-73
2021/04/29 12:42:16;;;;;;;20.07;13.13;;;;;;;14.40;59.84;99437.31;5062529;57;1140592;-74
2021/04/29 12:47:31;;;;;;;30.05;14.47;;;;;;;14.49;59.37;99447.45;5062159;57;1140391;-74
2021/04/29 12:52:59;;;;;;;21.93;14.23;;;;;;;14.55;58.68;99444.09;5062328;57;1140734;-74
2021/04/29 12:58:08;;;;;;;24.03;14.20;;;;;;;14.60;58.59;99437.77;5062220;57;1140514;-73
2021/04/29 13:03:13;;;;;;;18.33;11.63;;;;;;;14.65;58.08;99431.45;5061938;57;1140503;-73
2021/04/29 13:08:21;;;;;;;26.47;14.83;;;;;;;14.70;58.51;99435.73;5062576;57;1140473;-74
2021/04/29 13:13:33;;;;;;;28.57;16.43;;;;;;;14.76;57.81;99435.05;5062807;57;1140839;-73
2021/04/29 13:18:38;;;;;;;27.57;14.93;;;;;;;14.81;58.12;99432.39;5062416;57;1140853;-74
2021/04/29 13:23:44;;;;;;;36.80;16.47;;;;;;;14.81;57.06;99429.73;5057289;57;1140600;-73
2021/04/29 13:28:51;;;;;;;28.77;15.20;;;;;;;14.82;56.93;99432.19;5062057;57;1140732;-74
2021/04/29 13:33:58;;;;;;;26.00;15.17;;;;;;;14.87;57.54;99421.86;5070094;57;1140543;-74
2021/04/29 13:39:05;;;;;;;23.97;14.40;;;;;;;14.92;57.21;99424.84;5071658;57;1140615;-77
2021/04/29 13:44:12;;;;;;;23.97;12.27;;;;;;;14.95;56.67;99421.01;5071499;57;1140409;-76
2021/04/29 13:49:18;;;;;;;19.80;14.40;;;;;;;14.99;56.24;99415.14;5071276;57;1140556;-75
2021/04/29 13:54:23;;;;;;;32.30;13.95;;;;;;;15.05;56.09;99415.78;5071644;57;1140575;-76
2021/04/29 13:59:30;;;;;;;34.53;16.07;;;;;;;15.10;55.80;99418.77;5071425;57;1140619;-74
2021/04/29 14:04:35;;;;;;;25.32;14.40;;;;;;;15.13;55.67;99410.91;5071577;57;1140564;-74
2021/04/29 14:09:41;;;;;;;52.23;23.03;;;;;;;15.17;55.89;99417.55;5071285;57;1140578;-73
2021/04/29 14:14:47;;;;;;;19.40;12.80;;;;;;;15.20;55.78;99413.71;5071459;57;1140558;-74
2021/04/29 14:19:52;;;;;;;22.53;12.73;;;;;;;15.18;55.89;99420.54;5071161;57;1140608;-74
2021/04/29 14:24:58;;;;;;;23.20;12.23;;;;;;;15.11;55.79;99425.75;5071232;57;1140745;-74
2021/04/29 14:30:06;;;;;;;15.50;9.90;;;;;;;15.03;55.81;99423.61;5071379;57;1140634;-74
2021/04/29 14:35:12;;;;;;;29.87;14.70;;;;;;;14.94;56.08;99419.34;5057989;57;1138573;-74
2021/04/29 14:40:19;;;;;;;23.40;13.67;;;;;;;14.86;56.30;99415.38;5020632;57;1140754;-74
2021/04/29 14:45:27;;;;;;;22.52;11.75;;;;;;;14.82;56.53;99423.41;5051648;57;1140992;-74
2021/04/29 14:50:32;;;;;;;30.23;15.80;;;;;;;14.78;56.56;99416.25;5051702;57;1140929;-75
2021/04/29 14:55:40;;;;;;;26.00;15.53;;;;;;;14.74;56.64;99418.42;5051685;57;1140864;-75
2021/04/29 15:00:46;;;;;;;23.57;15.08;;;;;;;14.71;56.90;99420.09;5057140;57;1140784;-74
2021/04/29 15:05:52;;;;;;;31.77;16.27;;;;;;;14.70;56.99;99410.95;5074634;57;1140562;-76
2021/04/29 15:10:57;;;;;;;32.73;20.30;;;;;;;14.72;57.08;99412.94;5074731;57;1140663;-73
2021/04/29 15:16:03;;;;;;;29.87;17.33;;;;;;;14.71;57.43;99412.11;5074439;57;1140852;-74
2021/04/29 15:21:09;;;;;;;36.70;18.47;;;;;;;14.71;57.36;99413.94;5074730;57;1140890;-74
2021/04/29 15:26:15;;;;;;;52.03;22.43;;;;;;;14.72;57.55;99415.10;5074559;57;1140641;-75
2021/04/29 15:31:24;;;;;;;99.37;63.77;;;;;;;14.71;57.52;99407.28;5074773;57;1140878;-74
2021/04/29 15:36:29;;;;;;;60.83;35.55;;;;;;;14.69;57.67;99407.45;5073692;57;1140925;-74
2021/04/29 15:41:35;;;;;;;43.08;26.00;;;;;;;14.71;57.91;99408.12;5074970;57;1140909;-75
2021/04/29 15:46:41;;;;;;;29.43;17.07;;;;;;;14.72;58.10;99404.95;5074817;57;1140878;-74
2021/04/29 15:51:47;;;;;;;45.40;25.80;;;;;;;14.71;58.19;99404.63;5075330;57;1140850;-75
2021/04/29 15:56:52;;;;;;;64.03;25.23;;;;;;;14.72;58.52;99404.45;5075641;57;1140575;-75
2021/04/29 16:01:58;;;;;;;130.45;53.35;;;;;;;14.75;58.68;99401.45;5075504;57;1140557;-74
2021/04/29 16:07:04;;;;;;;94.83;42.93;;;;;;;14.79;58.87;99396.63;5075186;57;1142602;-75
2021/04/29 16:12:09;;;;;;;57.93;28.33;;;;;;;14.81;59.35;99393.29;5075579;57;1140691;-73
2021/04/29 16:17:15;;;;;;;29.77;16.83;;;;;;;14.84;59.66;99395.58;5068662;56;1140867;-74
2021/04/29 16:22:21;;;;;;;52.10;25.10;;;;;;;14.84;60.06;99386.27;5061531;57;1150123;-74
2021/04/29 16:27:27;;;;;;;56.48;25.25;;;;;;;14.89;60.63;99381.75;5070136;57;1141017;-73
2021/04/29 16:32:33;;;;;;;32.53;12.10;;;;;;;14.88;60.86;99382.25;5071218;57;1141035;-74
2021/04/29 16:37:39;;;;;;;24.63;11.60;;;;;;;14.87;60.61;99376.60;5070568;57;1140902;-75
2021/04/29 16:42:47;;;;;;;34.37;16.77;;;;;;;14.84;60.43;99378.28;5070408;57;1140613;-74
2021/04/29 16:47:53;;;;;;;24.83;12.70;;;;;;;14.81;60.98;99382.64;5070119;57;1140700;-75
2021/04/29 16:52:59;;;;;;;32.37;17.13;;;;;;;14.81;60.88;99376.48;5070477;57;1140845;-75
2021/04/29 16:58:05;;;;;;;22.73;15.87;;;;;;;14.82;60.87;99374.95;5070344;57;1140838;-78
2021/04/29 17:03:11;;;;;;;38.87;22.00;;;;;;;14.84;61.28;99375.61;5070842;57;1140852;-78
2021/04/29 17:08:16;;;;;;;124.30;57.77;;;;;;;14.87;61.20;99386.42;5070807;57;1140824;-77
2021/04/29 17:13:22;;;;;;;123.07;60.43;;;;;;;14.86;61.30;99379.44;5074867;57;1142871;-77
2021/04/29 17:18:28;;;;;;;186.62;87.33;;;;;;;14.82;61.42;99383.47;4897162;59;1142924;-78
2021/04/29 17:23:38;;;;;;;77.12;40.92;;;;;;;14.82;61.38;99384.80;5070852;57;1142932;-77
2021/04/29 17:28:42;;;;;;;140.20;81.03;;;;;;;14.86;61.39;99390.91;5070919;57;1140682;-79
2021/04/29 17:33:47;;;;;;;83.17;48.03;;;;;;;14.87;61.40;99388.58;5060140;56;1142699;-77
2021/04/29 17:38:53;;;;;;;38.50;18.57;;;;;;;14.89;61.53;99386.58;5034017;56;1140593;-73
2021/04/29 17:44:00;;;;;;;133.63;54.03;;;;;;;14.89;61.36;99387.91;5059684;56;1140700;-74
2021/04/29 17:49:05;;;;;;;69.10;34.33;;;;;;;14.84;61.49;99388.92;5071473;56;1142684;-74
2021/04/29 17:54:11;;;;;;;57.77;32.53;;;;;;;14.81;61.39;99393.29;5071705;56;1140829;-77
2021/04/29 17:59:17;;;;;;;121.70;57.80;;;;;;;14.76;61.46;99391.14;5070176;56;1140618;-77
2021/04/29 18:04:23;;;;;;;234.87;89.17;;;;;;;14.72;61.50;99403.12;5084308;57;1147366;-76
2021/04/29 18:09:29;;;;;;;92.88;46.20;;;;;;;14.63;61.51;99402.84;5058198;57;1142850;-76
2021/04/29 18:14:35;;;;;;;707.42;395.42;;;;;;;14.62;61.50;99397.19;5070515;57;1140950;-78
2021/04/29 18:19:40;;;;;;;243.22;141.00;;;;;;;14.65;61.57;99390.20;5022799;57;1144724;-75
2021/04/29 18:24:47;;;;;;;30.77;17.10;;;;;;;14.66;61.68;99391.86;5032455;57;1145112;-77
2021/04/29 18:29:52;;;;;;;20.70;12.03;;;;;;;14.62;61.87;99383.87;5072749;57;1140369;-76
2021/04/29 18:35:04;;;;;;;18.93;13.43;;;;;;;14.49;61.83;99384.94;5049317;57;1140676;-76
2021/04/29 18:40:12;;;;;;;14.63;10.23;;;;;;;14.41;61.90;99395.08;5034264;56;1140793;-76
2021/04/29 18:45:19;;;;;;;21.00;16.03;;;;;;;14.31;62.12;99394.92;5061235;57;1141205;-75
2021/04/29 18:50:25;;;;;;;21.60;14.37;;;;;;;14.22;62.07;99413.21;5063909;57;1145625;-77
2021/04/29 18:55:31;;;;;;;30.00;16.30;;;;;;;14.13;62.20;99415.56;5063732;57;1141013;-75
2021/04/29 19:00:41;;;;;;;23.02;13.88;;;;;;;14.01;62.33;99415.92;5049448;57;1140906;-75
2021/04/29 19:05:45;;;;;;;24.87;12.13;;;;;;;13.98;62.41;99424.72;5041109;58;1140510;-73
2021/04/29 19:10:52;;;;;;;21.47;12.87;;;;;;;13.94;62.69;99405.61;5045101;58;1140633;-70
2021/04/29 19:15:57;;;;;;;33.60;19.63;;;;;;;13.93;62.99;99419.90;5052777;57;1140510;-73
2021/04/29 19:21:04;;;;;;;29.77;14.67;;;;;;;13.95;63.61;99435.69;5063782;57;1140430;-73
2021/04/29 19:26:09;;;;;;;23.40;9.50;;;;;;;13.80;67.07;99486.52;5063861;57;1140504;-73
2021/04/29 19:31:15;;;;;;;29.47;13.80;;;;;;;13.56;68.36;99499.28;5035340;56;1138610;-74
2021/04/29 19:36:23;;;;;;;24.27;12.97;;;;;;;13.27;71.50;99492.56;5035279;56;1140609;-74
2021/04/29 19:41:28;;;;;;;19.80;12.20;;;;;;;13.08;69.99;99480.02;5045637;57;1141327;-72
2021/04/29 19:46:34;;;;;;;21.77;13.25;;;;;;;12.94;70.32;99482.28;4995098;57;1141022;-71
2021/04/29 19:51:39;;;;;;;21.42;12.03;;;;;;;12.81;70.21;99499.64;4976396;57;1140872;-72
2021/04/29 19:56:45;;;;;;;19.30;11.00;;;;;;;12.67;71.45;99536.87;4982927;58;1140750;-74
2021/04/29 20:01:51;;;;;;;18.03;11.37;;;;;;;12.50;71.09;99535.93;4996685;58;1140613;-72
2021/04/29 20:06:56;;;;;;;15.20;9.47;;;;;;;12.40;70.45;99533.02;5014208;58;1141130;-71
2021/04/29 20:12:02;;;;;;;21.43;11.57;;;;;;;12.30;70.27;99529.97;5013967;58;1138536;-70
2021/04/29 20:17:09;;;;;;;32.57;17.00;;;;;;;12.38;70.22;99534.49;5013825;57;1140577;-74
2021/04/29 20:22:15;;;;;;;32.90;20.65;;;;;;;12.47;70.10;99532.25;5013687;58;1140344;-72
2021/04/29 20:27:20;;;;;;;30.00;18.97;;;;;;;12.60;70.19;99522.55;5014061;58;1140423;-72
2021/04/29 20:32:26;;;;;;;27.03;16.23;;;;;;;12.71;70.09;99526.27;5013546;57;1141093;-74
2021/04/29 20:37:32;;;;;;;26.10;18.17;;;;;;;12.79;69.94;99532.12;5012264;58;1140914;-71
2021/04/29 20:42:38;;;;;;;22.40;13.53;;;;;;;12.80;69.65;99530.64;5012295;58;1141260;-70
2021/04/29 20:47:43;;;;;;;19.90;14.30;;;;;;;12.79;69.34;99528.14;5068128;57;1141035;-73
2021/04/29 20:52:50;;;;;;;23.73;14.80;;;;;;;12.79;69.22;99544.06;5096139;57;1140442;-71
2021/04/29 20:57:56;;;;;;;133.67;67.87;;;;;;;12.65;69.17;99552.94;5096553;57;1140969;-74
2021/04/29 21:03:02;;;;;;;74.10;38.43;;;;;;;12.46;69.47;99562.91;5096183;57;1142705;-73
2021/04/29 21:08:08;;;;;;;70.47;38.37;;;;;;;12.29;69.87;99566.75;5096278;57;1140795;-74
2021/04/29 21:13:13;;;;;;;38.57;22.73;;;;;;;12.22;70.00;99554.27;5096287;57;1140662;-74
2021/04/29 21:18:19;;;;;;;16.03;10.40;;;;;;;12.19;70.20;99555.41;5096350;57;1140810;-73
2021/04/29 21:23:25;;;;;;;30.33;19.10;;;;;;;12.13;70.43;99560.47;5096525;57;1140605;-72
2021/04/29 21:28:31;;;;;;;26.87;15.23;;;;;;;12.04;70.35;99566.20;5096010;57;1140899;-72
2021/04/29 21:33:38;;;;;;;38.98;20.75;;;;;;;11.93;70.40;99561.11;5096543;57;1140682;-71
2021/04/29 21:38:45;;;;;;;22.50;14.68;;;;;;;11.86;70.48;99552.11;5096430;57;1140635;-73
2021/04/29 21:43:55;;;;;;;17.60;11.43;;;;;;;11.88;70.43;99552.31;5096242;57;1140569;-72
2021/04/29 21:49:00;;;;;;;15.97;10.53;;;;;;;11.90;70.23;99557.46;5096110;57;1140952;-74
2021/04/29 21:54:07;;;;;;;18.40;12.93;;;;;;;11.84;70.12;99563.34;5096122;57;1140933;-71
2021/04/29 21:59:12;;;;;;;20.47;14.10;;;;;;;11.86;70.30;99564.03;5096014;57;1140889;-72
2021/04/29 22:04:18;;;;;;;31.17;19.57;;;;;;;11.86;70.30;99564.03;5096039;57;1140574;-71
2021/04/29 22:09:26;;;;;;;24.73;14.20;;;;;;;11.87;70.24;99564.38;5095982;57;1140675;-74
2021/04/29 22:14:31;;;;;;;16.50;11.60;;;;;;;11.88;69.94;99580.63;5096333;56;1147504;-70
2021/04/29 22:19:37;;;;;;;21.27;13.38;;;;;;;11.75;69.53;99592.05;5131536;56;1140820;-70
2021/04/29 22:24:43;;;;;;;26.37;15.80;;;;;;;11.59;69.66;99590.88;5152295;56;1140835;-73
2021/04/29 22:29:48;;;;;;;16.00;11.37;;;;;;;11.60;70.18;99585.09;5151415;56;1140547;-70
2021/04/29 22:34:54;;;;;;;18.50;12.37;;;;;;;11.61;70.23;99582.27;5152099;56;1140659;-73
2021/04/29 22:40:01;;;;;;;19.10;11.03;;;;;;;11.59;70.08;99580.78;5152000;56;1140508;-72
2021/04/29 22:45:09;;;;;;;21.77;9.83;;;;;;;11.57;69.98;99578.27;5151963;56;1140465;-74
2021/04/29 22:50:18;;;;;;;18.30;10.07;;;;;;;11.60;69.94;99583.28;5152217;56;1138900;-73
2021/04/29 22:55:23;;;;;;;22.03;10.37;;;;;;;11.49;69.71;99579.48;5152383;56;1140392;-71
2021/04/29 23:00:29;;;;;;;17.87;9.93;;;;;;;11.39;69.84;99582.69;5152584;56;1140493;-74
2021/04/29 23:05:35;;;;;;;14.58;7.75;;;;;;;11.24;69.78;99585.47;5152693;56;1138748;-73